SEKCJA WYDRUKÓW, pokaż »

METAR EPBY 062300Z 26007KT 9999 -RA OVC002 02/02 Q1009=

METAR EPGD 062300Z 25005KT 6000 -DZ OVC004 01/01 Q1007 =

METAR EPKK 062300Z 23008KT 9999 OVC007 02/01 Q1011 =

METAR EPKT 062300Z 24009KT 3400 -SN BR OVC003 00/00 Q1011 =

METAR EPLB 062300Z 19005KT 170V230 5000 BR OVC003 01/00 Q1010 =

METAR EPLL 062300Z 25008KT 5000 -RA BR BKN003 01/01 Q1010 =

METAR EPML 062300Z NIL=

METAR EPMO 062300Z VRB01KT 2000 -SN BR OVC004 00/00 Q1009 =

METAR EPPO 062300Z 27007KT 6000 -DZ OVC003 02/02 Q1010 =

METAR EPRA 062300Z NIL=

METAR EPRZ 062300Z 22010KT 6000 -RA BKN008 02/01 Q1011 =

METAR EPSC 062300Z 26008KT 9999 SCT004 BKN006 02/02 Q1011 =

METAR EPSY 062300Z VRB02KT 1200 R01/P2000N SN OVC002 M00/M00 Q1008=

METAR EPWA 062300Z 22002KT 3600 -SN BR SCT003 BKN007 00/00 Q1009
NOSIG=

METAR EPWR 062300Z 29006KT 260V340 9999 FEW006 BKN008 02/01 Q1012 =

METAR EPZG 062300Z NIL=
 METAR EPBY
Lokalizacja:EPBY Bydgoszcz
Czas:23:00 UTC
Średni kierunek wiatru:260 °
Średnia prędkość wiatru:7 węzłów
Widzialność:10 km i więcej
Opad:deszcz
Intensywność:słaba
Pierwsza warstwa chmur:8/8, wysokość podstawy 200 FT
Temperatura powietrza:2 °C
Temperatura punktu rosy:2 °C
Ciśnienie QNH:1009 hPa